sensor_id;sensor_type;location;lat;lon;timestamp;P1;durP1;ratioP1;P2;durP2;ratioP2
58496;SDS011;44284;51.310;16.904;2023-04-16T00:00:32;41.38;;;26.50;;
58496;SDS011;44284;51.310;16.904;2023-04-16T00:02:58;42.80;;;26.98;;
58496;SDS011;44284;51.310;16.904;2023-04-16T00:05:24;39.92;;;25.98;;
58496;SDS011;44284;51.310;16.904;2023-04-16T00:07:51;43.50;;;27.60;;
58496;SDS011;44284;51.310;16.904;2023-04-16T00:10:17;40.80;;;28.05;;
58496;SDS011;44284;51.310;16.904;2023-04-16T00:12:43;41.80;;;28.30;;
58496;SDS011;44284;51.310;16.904;2023-04-16T00:15:09;43.42;;;27.42;;
58496;SDS011;44284;51.310;16.904;2023-04-16T00:17:35;45.22;;;29.40;;
58496;SDS011;44284;51.310;16.904;2023-04-16T00:20:02;45.22;;;29.27;;
58496;SDS011;44284;51.310;16.904;2023-04-16T00:22:28;42.03;;;28.20;;
58496;SDS011;44284;51.310;16.904;2023-04-16T00:24:54;46.17;;;30.92;;
58496;SDS011;44284;51.310;16.904;2023-04-16T00:27:20;44.97;;;29.48;;
58496;SDS011;44284;51.310;16.904;2023-04-16T00:29:46;40.72;;;28.30;;
58496;SDS011;44284;51.310;16.904;2023-04-16T00:32:12;38.97;;;27.60;;
58496;SDS011;44284;51.310;16.904;2023-04-16T00:34:38;42.90;;;30.00;;
58496;SDS011;44284;51.310;16.904;2023-04-16T00:37:04;42.72;;;27.38;;
58496;SDS011;44284;51.310;16.904;2023-04-16T00:39:30;44.03;;;28.35;;
58496;SDS011;44284;51.310;16.904;2023-04-16T00:41:56;45.22;;;29.60;;
58496;SDS011;44284;51.310;16.904;2023-04-16T00:44:22;43.88;;;27.98;;
58496;SDS011;44284;51.310;16.904;2023-04-16T00:46:48;44.35;;;29.05;;
58496;SDS011;44284;51.310;16.904;2023-04-16T00:49:15;42.25;;;28.45;;
58496;SDS011;44284;51.310;16.904;2023-04-16T00:51:41;42.47;;;27.73;;
58496;SDS011;44284;51.310;16.904;2023-04-16T00:54:07;42.55;;;27.42;;
58496;SDS011;44284;51.310;16.904;2023-04-16T00:56:33;39.53;;;25.90;;
58496;SDS011;44284;51.310;16.904;2023-04-16T00:59:00;40.53;;;24.63;;
58496;SDS011;44284;51.310;16.904;2023-04-16T01:01:26;37.03;;;24.75;;
58496;SDS011;44284;51.310;16.904;2023-04-16T01:03:52;38.97;;;24.02;;
58496;SDS011;44284;51.310;16.904;2023-04-16T01:06:19;37.80;;;25.15;;
58496;SDS011;44284;51.310;16.904;2023-04-16T01:08:46;35.95;;;23.90;;
58496;SDS011;44284;51.310;16.904;2023-04-16T01:11:13;35.42;;;23.83;;
58496;SDS011;44284;51.310;16.904;2023-04-16T01:13:39;37.75;;;24.83;;
58496;SDS011;44284;51.310;16.904;2023-04-16T01:16:06;42.38;;;26.42;;
58496;SDS011;44284;51.310;16.904;2023-04-16T01:18:33;41.58;;;26.42;;
58496;SDS011;44284;51.310;16.904;2023-04-16T01:20:59;37.90;;;26.40;;
58496;SDS011;44284;51.310;16.904;2023-04-16T01:23:25;41.40;;;27.50;;
58496;SDS011;44284;51.310;16.904;2023-04-16T01:25:51;33.92;;;23.52;;
58496;SDS011;44284;51.310;16.904;2023-04-16T01:28:17;36.85;;;24.27;;
58496;SDS011;44284;51.310;16.904;2023-04-16T01:30:43;37.70;;;24.92;;
58496;SDS011;44284;51.310;16.904;2023-04-16T01:33:10;43.03;;;25.90;;
58496;SDS011;44284;51.310;16.904;2023-04-16T01:35:37;36.80;;;25.48;;
58496;SDS011;44284;51.310;16.904;2023-04-16T01:38:03;40.47;;;24.60;;
58496;SDS011;44284;51.310;16.904;2023-04-16T01:40:30;36.80;;;23.58;;
58496;SDS011;44284;51.310;16.904;2023-04-16T01:42:56;35.45;;;25.17;;
58496;SDS011;44284;51.310;16.904;2023-04-16T01:45:22;39.78;;;26.27;;
58496;SDS011;44284;51.310;16.904;2023-04-16T01:47:48;36.50;;;25.38;;
58496;SDS011;44284;51.310;16.904;2023-04-16T01:50:15;37.47;;;23.98;;
58496;SDS011;44284;51.310;16.904;2023-04-16T01:52:42;37.50;;;24.40;;
58496;SDS011;44284;51.310;16.904;2023-04-16T01:55:08;38.80;;;24.23;;
58496;SDS011;44284;51.310;16.904;2023-04-16T01:57:34;45.35;;;28.17;;
58496;SDS011;44284;51.310;16.904;2023-04-16T02:00:00;49.08;;;27.83;;
58496;SDS011;44284;51.310;16.904;2023-04-16T02:02:27;46.00;;;28.35;;
58496;SDS011;44284;51.310;16.904;2023-04-16T02:04:53;51.60;;;28.00;;
58496;SDS011;44284;51.310;16.904;2023-04-16T02:07:19;45.15;;;27.48;;
58496;SDS011;44284;51.310;16.904;2023-04-16T02:09:45;44.10;;;25.98;;
58496;SDS011;44284;51.310;16.904;2023-04-16T02:12:11;43.38;;;26.98;;
58496;SDS011;44284;51.310;16.904;2023-04-16T02:14:37;40.80;;;26.27;;
58496;SDS011;44284;51.310;16.904;2023-04-16T02:17:04;46.47;;;26.95;;
58496;SDS011;44284;51.310;16.904;2023-04-16T02:19:30;48.67;;;27.52;;
58496;SDS011;44284;51.310;16.904;2023-04-16T02:21:56;45.97;;;27.52;;
58496;SDS011;44284;51.310;16.904;2023-04-16T02:24:22;47.28;;;27.58;;
58496;SDS011;44284;51.310;16.904;2023-04-16T02:26:48;49.30;;;28.08;;
58496;SDS011;44284;51.310;16.904;2023-04-16T02:29:14;53.80;;;28.38;;
58496;SDS011;44284;51.310;16.904;2023-04-16T02:31:40;50.38;;;26.80;;
58496;SDS011;44284;51.310;16.904;2023-04-16T02:34:06;49.92;;;27.98;;
58496;SDS011;44284;51.310;16.904;2023-04-16T02:36:33;52.58;;;26.88;;
58496;SDS011;44284;51.310;16.904;2023-04-16T02:38:59;57.30;;;27.35;;
58496;SDS011;44284;51.310;16.904;2023-04-16T02:41:25;48.80;;;27.15;;
58496;SDS011;44284;51.310;16.904;2023-04-16T02:43:51;56.80;;;27.70;;
58496;SDS011;44284;51.310;16.904;2023-04-16T02:46:17;48.47;;;27.23;;
58496;SDS011;44284;51.310;16.904;2023-04-16T02:48:43;46.83;;;27.75;;
58496;SDS011;44284;51.310;16.904;2023-04-16T02:51:09;50.83;;;27.08;;
58496;SDS011;44284;51.310;16.904;2023-04-16T02:53:35;43.95;;;26.45;;
58496;SDS011;44284;51.310;16.904;2023-04-16T02:56:01;48.33;;;26.35;;
58496;SDS011;44284;51.310;16.904;2023-04-16T02:58:27;47.05;;;26.80;;
58496;SDS011;44284;51.310;16.904;2023-04-16T03:00:53;38.45;;;24.83;;
58496;SDS011;44284;51.310;16.904;2023-04-16T03:03:20;41.38;;;25.25;;
58496;SDS011;44284;51.310;16.904;2023-04-16T03:05:46;45.42;;;27.08;;
58496;SDS011;44284;51.310;16.904;2023-04-16T03:08:12;40.92;;;27.23;;
58496;SDS011;44284;51.310;16.904;2023-04-16T03:10:38;41.58;;;26.05;;
58496;SDS011;44284;51.310;16.904;2023-04-16T03:13:05;37.85;;;25.35;;
58496;SDS011;44284;51.310;16.904;2023-04-16T03:15:31;44.88;;;26.73;;
58496;SDS011;44284;51.310;16.904;2023-04-16T03:17:58;45.80;;;27.15;;
58496;SDS011;44284;51.310;16.904;2023-04-16T03:20:24;49.28;;;26.83;;
58496;SDS011;44284;51.310;16.904;2023-04-16T03:22:50;53.72;;;27.52;;
58496;SDS011;44284;51.310;16.904;2023-04-16T03:25:16;66.65;;;29.02;;
58496;SDS011;44284;51.310;16.904;2023-04-16T03:27:43;47.30;;;26.83;;
58496;SDS011;44284;51.310;16.904;2023-04-16T03:30:12;44.78;;;27.60;;
58496;SDS011;44284;51.310;16.904;2023-04-16T03:32:38;46.65;;;27.65;;
58496;SDS011;44284;51.310;16.904;2023-04-16T03:35:05;48.25;;;28.23;;
58496;SDS011;44284;51.310;16.904;2023-04-16T03:37:32;45.65;;;28.48;;
58496;SDS011;44284;51.310;16.904;2023-04-16T03:39:58;46.05;;;28.83;;
58496;SDS011;44284;51.310;16.904;2023-04-16T03:42:24;45.63;;;27.52;;
58496;SDS011;44284;51.310;16.904;2023-04-16T03:44:50;45.83;;;28.25;;
58496;SDS011;44284;51.310;16.904;2023-04-16T03:47:17;45.58;;;28.50;;
58496;SDS011;44284;51.310;16.904;2023-04-16T03:49:43;45.75;;;28.58;;
58496;SDS011;44284;51.310;16.904;2023-04-16T03:52:09;41.55;;;28.65;;
58496;SDS011;44284;51.310;16.904;2023-04-16T03:54:35;44.03;;;28.95;;
58496;SDS011;44284;51.310;16.904;2023-04-16T03:57:02;49.25;;;28.83;;
58496;SDS011;44284;51.310;16.904;2023-04-16T03:59:28;45.60;;;28.80;;
58496;SDS011;44284;51.310;16.904;2023-04-16T04:01:54;43.53;;;28.63;;
58496;SDS011;44284;51.310;16.904;2023-04-16T04:04:20;44.97;;;27.88;;
58496;SDS011;44284;51.310;16.904;2023-04-16T04:06:46;42.80;;;28.08;;
58496;SDS011;44284;51.310;16.904;2023-04-16T04:09:12;39.78;;;26.40;;
58496;SDS011;44284;51.310;16.904;2023-04-16T04:11:40;42.60;;;27.25;;
58496;SDS011;44284;51.310;16.904;2023-04-16T04:14:06;42.60;;;27.95;;
58496;SDS011;44284;51.310;16.904;2023-04-16T04:16:32;42.53;;;27.15;;
58496;SDS011;44284;51.310;16.904;2023-04-16T04:18:58;45.80;;;28.77;;
58496;SDS011;44284;51.310;16.904;2023-04-16T04:21:25;43.92;;;29.17;;
58496;SDS011;44284;51.310;16.904;2023-04-16T04:23:52;47.22;;;27.10;;
58496;SDS011;44284;51.310;16.904;2023-04-16T04:26:18;42.97;;;28.38;;
58496;SDS011;44284;51.310;16.904;2023-04-16T04:28:45;48.20;;;28.67;;
58496;SDS011;44284;51.310;16.904;2023-04-16T04:31:11;45.67;;;28.85;;
58496;SDS011;44284;51.310;16.904;2023-04-16T04:33:37;42.65;;;27.60;;
58496;SDS011;44284;51.310;16.904;2023-04-16T04:36:03;47.63;;;29.05;;
58496;SDS011;44284;51.310;16.904;2023-04-16T04:38:29;48.45;;;29.77;;
58496;SDS011;44284;51.310;16.904;2023-04-16T04:40:56;48.60;;;28.58;;
58496;SDS011;44284;51.310;16.904;2023-04-16T04:43:22;46.03;;;29.25;;
58496;SDS011;44284;51.310;16.904;2023-04-16T04:45:48;48.67;;;29.85;;
58496;SDS011;44284;51.310;16.904;2023-04-16T04:48:14;50.15;;;31.13;;
58496;SDS011;44284;51.310;16.904;2023-04-16T04:50:41;47.80;;;30.55;;
58496;SDS011;44284;51.310;16.904;2023-04-16T04:53:07;51.00;;;32.00;;
58496;SDS011;44284;51.310;16.904;2023-04-16T04:55:38;51.28;;;32.38;;
58496;SDS011;44284;51.310;16.904;2023-04-16T04:58:05;46.70;;;31.95;;
58496;SDS011;44284;51.310;16.904;2023-04-16T05:00:31;51.38;;;31.50;;
58496;SDS011;44284;51.310;16.904;2023-04-16T05:03:01;49.50;;;31.90;;
58496;SDS011;44284;51.310;16.904;2023-04-16T05:05:28;52.97;;;31.98;;
58496;SDS011;44284;51.310;16.904;2023-04-16T05:07:54;49.80;;;30.65;;
58496;SDS011;44284;51.310;16.904;2023-04-16T05:10:20;48.25;;;30.27;;
58496;SDS011;44284;51.310;16.904;2023-04-16T05:12:46;47.45;;;29.02;;
58496;SDS011;44284;51.310;16.904;2023-04-16T05:15:12;45.55;;;28.77;;
58496;SDS011;44284;51.310;16.904;2023-04-16T05:17:38;50.45;;;30.40;;
58496;SDS011;44284;51.310;16.904;2023-04-16T05:20:05;79.88;;;28.77;;
58496;SDS011;44284;51.310;16.904;2023-04-16T05:22:32;97.78;;;26.58;;
58496;SDS011;44284;51.310;16.904;2023-04-16T05:24:58;71.68;;;23.80;;
58496;SDS011;44284;51.310;16.904;2023-04-16T05:27:24;55.22;;;23.45;;
58496;SDS011;44284;51.310;16.904;2023-04-16T05:29:50;72.93;;;24.25;;
58496;SDS011;44284;51.310;16.904;2023-04-16T05:32:16;54.15;;;23.00;;
58496;SDS011;44284;51.310;16.904;2023-04-16T05:34:42;48.28;;;22.88;;
58496;SDS011;44284;51.310;16.904;2023-04-16T05:37:08;40.97;;;22.75;;
58496;SDS011;44284;51.310;16.904;2023-04-16T05:39:34;38.75;;;23.38;;
58496;SDS011;44284;51.310;16.904;2023-04-16T05:42:00;38.40;;;24.67;;
58496;SDS011;44284;51.310;16.904;2023-04-16T05:44:26;45.30;;;24.40;;
58496;SDS011;44284;51.310;16.904;2023-04-16T05:46:52;59.88;;;23.85;;
58496;SDS011;44284;51.310;16.904;2023-04-16T05:49:18;38.10;;;23.30;;
58496;SDS011;44284;51.310;16.904;2023-04-16T05:51:45;39.05;;;24.70;;
58496;SDS011;44284;51.310;16.904;2023-04-16T05:54:11;37.70;;;23.23;;
58496;SDS011;44284;51.310;16.904;2023-04-16T05:56:37;34.97;;;23.23;;
58496;SDS011;44284;51.310;16.904;2023-04-16T05:59:03;42.65;;;25.52;;
58496;SDS011;44284;51.310;16.904;2023-04-16T06:01:29;40.50;;;24.35;;
58496;SDS011;44284;51.310;16.904;2023-04-16T06:03:55;37.38;;;24.25;;
58496;SDS011;44284;51.310;16.904;2023-04-16T06:06:21;34.60;;;23.00;;
58496;SDS011;44284;51.310;16.904;2023-04-16T06:08:47;36.30;;;23.65;;
58496;SDS011;44284;51.310;16.904;2023-04-16T06:11:13;35.60;;;24.20;;
58496;SDS011;44284;51.310;16.904;2023-04-16T06:13:40;36.83;;;23.90;;
58496;SDS011;44284;51.310;16.904;2023-04-16T06:16:06;34.83;;;22.02;;
58496;SDS011;44284;51.310;16.904;2023-04-16T06:18:32;34.53;;;22.98;;
58496;SDS011;44284;51.310;16.904;2023-04-16T06:20:59;37.03;;;24.30;;
58496;SDS011;44284;51.310;16.904;2023-04-16T06:23:25;34.83;;;23.75;;
58496;SDS011;44284;51.310;16.904;2023-04-16T06:25:51;33.83;;;22.67;;
58496;SDS011;44284;51.310;16.904;2023-04-16T06:28:18;31.13;;;20.75;;
58496;SDS011;44284;51.310;16.904;2023-04-16T06:30:45;32.70;;;20.58;;
58496;SDS011;44284;51.310;16.904;2023-04-16T06:33:11;34.55;;;21.70;;
58496;SDS011;44284;51.310;16.904;2023-04-16T06:35:37;34.97;;;20.45;;
58496;SDS011;44284;51.310;16.904;2023-04-16T06:38:03;27.00;;;19.05;;
58496;SDS011;44284;51.310;16.904;2023-04-16T06:40:29;28.80;;;18.23;;
58496;SDS011;44284;51.310;16.904;2023-04-16T06:42:55;26.20;;;18.00;;
58496;SDS011;44284;51.310;16.904;2023-04-16T06:45:21;27.60;;;17.67;;
58496;SDS011;44284;51.310;16.904;2023-04-16T06:47:47;26.65;;;17.05;;
58496;SDS011;44284;51.310;16.904;2023-04-16T06:50:15;33.00;;;18.20;;
58496;SDS011;44284;51.310;16.904;2023-04-16T06:52:41;28.20;;;17.20;;
58496;SDS011;44284;51.310;16.904;2023-04-16T06:55:07;36.33;;;18.27;;
58496;SDS011;44284;51.310;16.904;2023-04-16T06:57:34;37.88;;;17.25;;
58496;SDS011;44284;51.310;16.904;2023-04-16T07:00:00;28.42;;;16.85;;
58496;SDS011;44284;51.310;16.904;2023-04-16T07:02:26;34.60;;;17.73;;
58496;SDS011;44284;51.310;16.904;2023-04-16T07:04:52;33.28;;;18.35;;
58496;SDS011;44284;51.310;16.904;2023-04-16T07:07:18;31.95;;;18.98;;
58496;SDS011;44284;51.310;16.904;2023-04-16T07:09:44;26.88;;;17.60;;
58496;SDS011;44284;51.310;16.904;2023-04-16T07:12:10;33.65;;;19.10;;
58496;SDS011;44284;51.310;16.904;2023-04-16T07:14:37;31.38;;;18.58;;
58496;SDS011;44284;51.310;16.904;2023-04-16T07:17:03;32.45;;;19.25;;
58496;SDS011;44284;51.310;16.904;2023-04-16T07:19:29;31.65;;;19.17;;
58496;SDS011;44284;51.310;16.904;2023-04-16T07:21:57;34.65;;;19.10;;
58496;SDS011;44284;51.310;16.904;2023-04-16T07:24:23;29.52;;;19.08;;
58496;SDS011;44284;51.310;16.904;2023-04-16T07:26:49;30.38;;;18.50;;
58496;SDS011;44284;51.310;16.904;2023-04-16T07:29:15;30.92;;;18.73;;
58496;SDS011;44284;51.310;16.904;2023-04-16T07:31:41;31.20;;;19.38;;
58496;SDS011;44284;51.310;16.904;2023-04-16T07:34:07;32.10;;;18.98;;
58496;SDS011;44284;51.310;16.904;2023-04-16T07:36:34;32.92;;;20.25;;
58496;SDS011;44284;51.310;16.904;2023-04-16T07:39:00;34.35;;;21.23;;
58496;SDS011;44284;51.310;16.904;2023-04-16T07:41:26;36.28;;;22.15;;
58496;SDS011;44284;51.310;16.904;2023-04-16T07:43:53;36.30;;;21.58;;
58496;SDS011;44284;51.310;16.904;2023-04-16T07:46:19;36.35;;;20.52;;
58496;SDS011;44284;51.310;16.904;2023-04-16T07:48:46;34.95;;;21.50;;
58496;SDS011;44284;51.310;16.904;2023-04-16T07:51:12;34.70;;;20.58;;
58496;SDS011;44284;51.310;16.904;2023-04-16T07:53:38;34.22;;;20.52;;
58496;SDS011;44284;51.310;16.904;2023-04-16T07:56:05;28.23;;;18.23;;
58496;SDS011;44284;51.310;16.904;2023-04-16T07:58:31;26.10;;;17.10;;
58496;SDS011;44284;51.310;16.904;2023-04-16T08:00:57;28.40;;;17.00;;
58496;SDS011;44284;51.310;16.904;2023-04-16T08:03:23;26.92;;;16.58;;
58496;SDS011;44284;51.310;16.904;2023-04-16T08:05:49;23.90;;;14.50;;
58496;SDS011;44284;51.310;16.904;2023-04-16T08:08:15;22.98;;;13.45;;
58496;SDS011;44284;51.310;16.904;2023-04-16T08:10:41;20.42;;;12.77;;
58496;SDS011;44284;51.310;16.904;2023-04-16T08:13:07;20.35;;;13.13;;
58496;SDS011;44284;51.310;16.904;2023-04-16T08:15:33;21.25;;;13.25;;
58496;SDS011;44284;51.310;16.904;2023-04-16T08:17:59;21.73;;;12.90;;
58496;SDS011;44284;51.310;16.904;2023-04-16T08:20:26;18.13;;;12.38;;
58496;SDS011;44284;51.310;16.904;2023-04-16T08:22:52;20.08;;;13.30;;
58496;SDS011;44284;51.310;16.904;2023-04-16T08:25:18;18.23;;;12.48;;
58496;SDS011;44284;51.310;16.904;2023-04-16T08:27:45;19.48;;;11.90;;
58496;SDS011;44284;51.310;16.904;2023-04-16T08:30:11;20.23;;;12.57;;
58496;SDS011;44284;51.310;16.904;2023-04-16T08:32:37;18.30;;;11.35;;
58496;SDS011;44284;51.310;16.904;2023-04-16T08:35:03;18.27;;;11.60;;
58496;SDS011;44284;51.310;16.904;2023-04-16T08:37:29;19.48;;;12.85;;
58496;SDS011;44284;51.310;16.904;2023-04-16T08:39:55;18.05;;;12.55;;
58496;SDS011;44284;51.310;16.904;2023-04-16T08:42:31;18.63;;;12.25;;
58496;SDS011;44284;51.310;16.904;2023-04-16T08:45:07;16.70;;;11.15;;
58496;SDS011;44284;51.310;16.904;2023-04-16T08:47:34;16.38;;;10.10;;
58496;SDS011;44284;51.310;16.904;2023-04-16T08:50:03;16.35;;;11.02;;
58496;SDS011;44284;51.310;16.904;2023-04-16T08:52:30;14.32;;;10.52;;
58496;SDS011;44284;51.310;16.904;2023-04-16T08:55:02;14.80;;;9.38;;
58496;SDS011;44284;51.310;16.904;2023-04-16T08:57:32;13.82;;;8.73;;
58496;SDS011;44284;51.310;16.904;2023-04-16T09:00:02;12.48;;;8.07;;
58496;SDS011;44284;51.310;16.904;2023-04-16T09:02:28;13.63;;;9.70;;
58496;SDS011;44284;51.310;16.904;2023-04-16T09:04:56;12.82;;;8.77;;
58496;SDS011;44284;51.310;16.904;2023-04-16T09:07:23;15.10;;;9.98;;
58496;SDS011;44284;51.310;16.904;2023-04-16T09:09:50;11.10;;;7.57;;
58496;SDS011;44284;51.310;16.904;2023-04-16T09:12:17;9.00;;;6.25;;
58496;SDS011;44284;51.310;16.904;2023-04-16T09:14:47;11.80;;;7.57;;
58496;SDS011;44284;51.310;16.904;2023-04-16T09:17:15;14.05;;;8.15;;
58496;SDS011;44284;51.310;16.904;2023-04-16T09:19:41;10.27;;;7.93;;
58496;SDS011;44284;51.310;16.904;2023-04-16T09:22:07;15.48;;;9.63;;
58496;SDS011;44284;51.310;16.904;2023-04-16T09:24:33;15.15;;;10.50;;
58496;SDS011;44284;51.310;16.904;2023-04-16T09:26:59;14.50;;;9.50;;
58496;SDS011;44284;51.310;16.904;2023-04-16T09:29:35;11.73;;;7.85;;
58496;SDS011;44284;51.310;16.904;2023-04-16T09:32:02;12.57;;;7.53;;
58496;SDS011;44284;51.310;16.904;2023-04-16T09:34:28;10.75;;;6.63;;
58496;SDS011;44284;51.310;16.904;2023-04-16T09:37:01;9.77;;;6.95;;
58496;SDS011;44284;51.310;16.904;2023-04-16T09:39:38;10.75;;;7.47;;
58496;SDS011;44284;51.310;16.904;2023-04-16T09:42:04;9.48;;;6.35;;
58496;SDS011;44284;51.310;16.904;2023-04-16T09:44:34;10.70;;;7.65;;
58496;SDS011;44284;51.310;16.904;2023-04-16T09:47:05;12.57;;;8.32;;
58496;SDS011;44284;51.310;16.904;2023-04-16T09:49:32;13.10;;;9.15;;
58496;SDS011;44284;51.310;16.904;2023-04-16T09:52:00;11.32;;;7.68;;
58496;SDS011;44284;51.310;16.904;2023-04-16T09:54:26;10.57;;;7.20;;
58496;SDS011;44284;51.310;16.904;2023-04-16T09:56:54;11.00;;;7.95;;
58496;SDS011;44284;51.310;16.904;2023-04-16T09:59:22;12.10;;;8.60;;
58496;SDS011;44284;51.310;16.904;2023-04-16T10:01:48;12.13;;;7.85;;
58496;SDS011;44284;51.310;16.904;2023-04-16T10:04:17;10.95;;;7.38;;
58496;SDS011;44284;51.310;16.904;2023-04-16T10:06:43;11.38;;;6.95;;
58496;SDS011;44284;51.310;16.904;2023-04-16T10:09:12;10.88;;;7.57;;
58496;SDS011;44284;51.310;16.904;2023-04-16T10:11:38;11.38;;;7.38;;
58496;SDS011;44284;51.310;16.904;2023-04-16T10:14:04;10.38;;;7.75;;
58496;SDS011;44284;51.310;16.904;2023-04-16T10:16:31;12.10;;;8.43;;
58496;SDS011;44284;51.310;16.904;2023-04-16T10:18:57;10.30;;;7.22;;
58496;SDS011;44284;51.310;16.904;2023-04-16T10:21:24;11.02;;;7.80;;
58496;SDS011;44284;51.310;16.904;2023-04-16T10:23:57;10.50;;;7.40;;
58496;SDS011;44284;51.310;16.904;2023-04-16T10:26:24;10.90;;;4.97;;
58496;SDS011;44284;51.310;16.904;2023-04-16T10:28:50;7.93;;;5.28;;
58496;SDS011;44284;51.310;16.904;2023-04-16T10:31:16;9.50;;;6.50;;
58496;SDS011;44284;51.310;16.904;2023-04-16T10:33:42;10.00;;;6.47;;
58496;SDS011;44284;51.310;16.904;2023-04-16T10:36:09;7.40;;;4.35;;
58496;SDS011;44284;51.310;16.904;2023-04-16T10:38:49;7.45;;;4.88;;
58496;SDS011;44284;51.310;16.904;2023-04-16T10:41:18;8.40;;;5.25;;
58496;SDS011;44284;51.310;16.904;2023-04-16T10:43:45;7.47;;;5.13;;
58496;SDS011;44284;51.310;16.904;2023-04-16T10:46:24;7.65;;;5.20;;
58496;SDS011;44284;51.310;16.904;2023-04-16T10:48:54;8.00;;;5.57;;
58496;SDS011;44284;51.310;16.904;2023-04-16T10:53:54;8.10;;;5.10;;
58496;SDS011;44284;51.310;16.904;2023-04-16T10:56:23;7.22;;;4.85;;
58496;SDS011;44284;51.310;16.904;2023-04-16T10:58:51;8.35;;;5.07;;
58496;SDS011;44284;51.310;16.904;2023-04-16T11:01:18;7.25;;;4.57;;
58496;SDS011;44284;51.310;16.904;2023-04-16T11:03:51;8.00;;;4.93;;
58496;SDS011;44284;51.310;16.904;2023-04-16T11:06:22;7.00;;;4.75;;
58496;SDS011;44284;51.310;16.904;2023-04-16T11:08:50;7.63;;;4.75;;
58496;SDS011;44284;51.310;16.904;2023-04-16T11:11:19;7.13;;;4.22;;
58496;SDS011;44284;51.310;16.904;2023-04-16T11:13:46;8.90;;;4.22;;
58496;SDS011;44284;51.310;16.904;2023-04-16T11:16:12;7.10;;;4.40;;
58496;SDS011;44284;51.310;16.904;2023-04-16T11:18:38;6.97;;;4.47;;
58496;SDS011;44284;51.310;16.904;2023-04-16T11:21:08;6.45;;;3.95;;
58496;SDS011;44284;51.310;16.904;2023-04-16T11:23:49;6.03;;;3.72;;
58496;SDS011;44284;51.310;16.904;2023-04-16T11:26:19;5.90;;;3.90;;
58496;SDS011;44284;51.310;16.904;2023-04-16T11:28:45;5.45;;;3.70;;
58496;SDS011;44284;51.310;16.904;2023-04-16T11:31:11;6.28;;;3.80;;
58496;SDS011;44284;51.310;16.904;2023-04-16T11:33:37;5.53;;;3.72;;
58496;SDS011;44284;51.310;16.904;2023-04-16T11:36:04;5.57;;;3.70;;
58496;SDS011;44284;51.310;16.904;2023-04-16T11:38:34;5.53;;;3.42;;
58496;SDS011;44284;51.310;16.904;2023-04-16T11:41:01;5.93;;;3.88;;
58496;SDS011;44284;51.310;16.904;2023-04-16T11:43:27;5.47;;;3.40;;
58496;SDS011;44284;51.310;16.904;2023-04-16T11:46:03;5.25;;;3.25;;
58496;SDS011;44284;51.310;16.904;2023-04-16T11:48:49;4.97;;;3.20;;
58496;SDS011;44284;51.310;16.904;2023-04-16T11:51:15;5.22;;;3.20;;
58496;SDS011;44284;51.310;16.904;2023-04-16T11:53:51;5.57;;;3.40;;
58496;SDS011;44284;51.310;16.904;2023-04-16T11:56:27;4.90;;;2.97;;
58496;SDS011;44284;51.310;16.904;2023-04-16T12:01:33;4.90;;;3.15;;
58496;SDS011;44284;51.310;16.904;2023-04-16T12:04:02;4.90;;;2.95;;
58496;SDS011;44284;51.310;16.904;2023-04-16T12:06:29;5.85;;;3.03;;
58496;SDS011;44284;51.310;16.904;2023-04-16T12:08:59;5.45;;;3.50;;
58496;SDS011;44284;51.310;16.904;2023-04-16T12:11:40;6.28;;;3.10;;
58496;SDS011;44284;51.310;16.904;2023-04-16T12:14:08;5.05;;;3.25;;
58496;SDS011;44284;51.310;16.904;2023-04-16T12:16:34;5.40;;;3.10;;
58496;SDS011;44284;51.310;16.904;2023-04-16T12:19:01;4.60;;;3.13;;
58496;SDS011;44284;51.310;16.904;2023-04-16T12:24:06;5.28;;;2.90;;
58496;SDS011;44284;51.310;16.904;2023-04-16T12:26:42;5.80;;;3.00;;
58496;SDS011;44284;51.310;16.904;2023-04-16T12:31:41;5.40;;;3.20;;
58496;SDS011;44284;51.310;16.904;2023-04-16T12:34:07;5.57;;;3.20;;
58496;SDS011;44284;51.310;16.904;2023-04-16T12:36:34;7.72;;;3.42;;
58496;SDS011;44284;51.310;16.904;2023-04-16T12:39:00;6.65;;;3.85;;
58496;SDS011;44284;51.310;16.904;2023-04-16T12:41:27;6.97;;;3.80;;
58496;SDS011;44284;51.310;16.904;2023-04-16T12:44:06;6.00;;;3.60;;
58496;SDS011;44284;51.310;16.904;2023-04-16T12:46:33;5.35;;;3.40;;
58496;SDS011;44284;51.310;16.904;2023-04-16T12:49:00;5.78;;;3.53;;
58496;SDS011;44284;51.310;16.904;2023-04-16T12:51:27;5.60;;;3.38;;
58496;SDS011;44284;51.310;16.904;2023-04-16T12:53:53;5.15;;;3.53;;
58496;SDS011;44284;51.310;16.904;2023-04-16T12:56:19;5.75;;;3.90;;
58496;SDS011;44284;51.310;16.904;2023-04-16T12:58:45;6.10;;;4.40;;
58496;SDS011;44284;51.310;16.904;2023-04-16T13:01:15;5.28;;;3.75;;
58496;SDS011;44284;51.310;16.904;2023-04-16T13:03:41;6.68;;;3.35;;
58496;SDS011;44284;51.310;16.904;2023-04-16T13:06:07;5.68;;;3.47;;
58496;SDS011;44284;51.310;16.904;2023-04-16T13:08:33;4.68;;;3.20;;
58496;SDS011;44284;51.310;16.904;2023-04-16T13:10:59;5.47;;;3.25;;
58496;SDS011;44284;51.310;16.904;2023-04-16T13:13:26;5.60;;;3.05;;
58496;SDS011;44284;51.310;16.904;2023-04-16T13:15:52;4.68;;;2.88;;
58496;SDS011;44284;51.310;16.904;2023-04-16T13:18:18;5.15;;;3.22;;
58496;SDS011;44284;51.310;16.904;2023-04-16T13:20:44;5.20;;;3.42;;
58496;SDS011;44284;51.310;16.904;2023-04-16T13:23:10;5.05;;;3.40;;
58496;SDS011;44284;51.310;16.904;2023-04-16T13:25:36;6.78;;;5.47;;
58496;SDS011;44284;51.310;16.904;2023-04-16T13:28:02;4.47;;;3.35;;
58496;SDS011;44284;51.310;16.904;2023-04-16T13:30:28;5.35;;;3.13;;
58496;SDS011;44284;51.310;16.904;2023-04-16T13:32:55;4.72;;;3.15;;
58496;SDS011;44284;51.310;16.904;2023-04-16T13:35:22;5.00;;;3.13;;
58496;SDS011;44284;51.310;16.904;2023-04-16T13:37:48;4.38;;;2.92;;
58496;SDS011;44284;51.310;16.904;2023-04-16T13:40:14;5.28;;;3.10;;
58496;SDS011;44284;51.310;16.904;2023-04-16T13:42:40;4.40;;;2.80;;
58496;SDS011;44284;51.310;16.904;2023-04-16T13:45:06;5.30;;;2.92;;
58496;SDS011;44284;51.310;16.904;2023-04-16T13:47:37;4.32;;;2.60;;
58496;SDS011;44284;51.310;16.904;2023-04-16T13:50:03;4.82;;;3.08;;
58496;SDS011;44284;51.310;16.904;2023-04-16T13:52:29;7.60;;;4.25;;
58496;SDS011;44284;51.310;16.904;2023-04-16T13:54:55;5.30;;;3.20;;
58496;SDS011;44284;51.310;16.904;2023-04-16T13:57:21;5.75;;;3.45;;
58496;SDS011;44284;51.310;16.904;2023-04-16T13:59:47;6.07;;;3.58;;
58496;SDS011;44284;51.310;16.904;2023-04-16T14:02:13;6.03;;;3.42;;
58496;SDS011;44284;51.310;16.904;2023-04-16T14:04:40;4.82;;;3.13;;
58496;SDS011;44284;51.310;16.904;2023-04-16T14:07:06;4.95;;;3.03;;
58496;SDS011;44284;51.310;16.904;2023-04-16T14:09:32;4.88;;;3.08;;
58496;SDS011;44284;51.310;16.904;2023-04-16T14:11:58;4.80;;;2.92;;
58496;SDS011;44284;51.310;16.904;2023-04-16T14:14:24;5.88;;;3.78;;
58496;SDS011;44284;51.310;16.904;2023-04-16T14:16:50;8.20;;;5.20;;
58496;SDS011;44284;51.310;16.904;2023-04-16T14:19:18;57.28;;;29.25;;
58496;SDS011;44284;51.310;16.904;2023-04-16T14:21:45;13.73;;;6.97;;
58496;SDS011;44284;51.310;16.904;2023-04-16T14:24:11;55.38;;;24.65;;